Detall de PIREP

Printer-friendly versionPDF version

[2016/02/02 09:39:00]
Flight IATA:CT2101
Pilot Number:041
Company ICAO:CAT
Aircraft Type:F28/A
PAX:68
Departing Airport: LEAS
Destination Airport: LEVC
Alternate Airport:LEBL
Online: VATSIM
Route:XONDA R107 ZMR UL155 NVS UM871 ABOSI
Flight Level:FL240
No Slew and time accel
No pause
Crash detect
Detect pilot in Cockpit between each 30 and 45 minutes
09:39 Zero fuel Weight: 50087 Lbs, Fuel Weight: 22854 Lbs
09:39 VATSIM:LEAS 020900Z 24005KT 9999 BKN034 11/08 Q1031 NOSIG
09:39 VATSIM:LEVC 020900Z VRB01KT CAVOK 11/07 Q1028 NOSIG
09:39 VOICE CATALONIAN
09:44 Parking Brakes off
09:48 Take-off
09:48 Take off Weight: 72535 Lbs
09:48 Wind: 245º @ 004 Knots Heading: 288º
09:48 POS N43º 33´ 56´´ W006º 02´ 37´´
09:48 Gear Up: 165 Knots
09:48 Flaps:1 at 165 Knots
09:49 Flaps:0 at 199 Knots
10:03 Wind:291º@040 Knots Heading: 178º Ground Speed: 354 Knots Altitude 24120 ft
10:07 TOC
10:07 Fuel Weight: 20266 Lb
10:18 Wind:314º@022 Knots Heading: 134º Ground Speed: 404 Knots Altitude 24458 ft
10:33 Wind:325º@019 Knots Heading: 103º Ground Speed: 394 Knots Altitude 24455 ft
10:37 TOD
10:37 Fuel Weight: 18008 Lb
10:48 Wind:275º@011 Knots Heading: 107º Ground Speed: 288 Knots Altitude 7175 ft
10:57 Flaps:1 at 261 Knots
10:58 Flaps:2 at 225 Knots
10:58 Flaps:3 at 205 Knots
10:58 Gear Down: 203 Knots
10:58 Flaps:4 at 178 Knots
10:58 Flaps:5 at 152 Knots
10:59 TouchDown:Rate -183 ft/min Speed: 109 Knots
11:00 Flaps:1 at 91 Knots
11:00 Flaps:0 at 89 Knots
11:00 VATSIM:LEVC 021030Z 00000KT CAVOK 17/07 Q1028 NOSIG
11:00 Land
11:00 Wind:310º@002 Knots
11:00 Heading: 116º
11:00 Flight Duration: 01:12
11:00 Landing Weight: 67281 Lbs
11:00 POS N39º 29´ 32´´ W000º 29´ 24´´
11:03 Parking brakes on
11:03 Block to Block Duration: 01:19
11:03 Final Fuel: 17083 Lbls
11:03 Spent Fuel: 5771 Lbls
11:03 Flight Length: 410 NM
11:03 TOD Land Length: 108 NM

Exportar CSV

Powered by Drupal - Modified by Danger4k